Time;durP1;ratioP1;P1;durP2;ratioP2;P2;SDS_P1;SDS_P2;PMS_P1;PMS_P2;Temp;Humidity;BMP_temperature;BMP_pressure;BME280_temperature;BME280_humidity;BME280_pressure;Samples;Min_cycle;Max_cycle;Signal;HPM_P1;HPM_P2
2022/03/20 00:02:25;;;;;;;11.23;10.02;;;7.70;93.80;;;;;;5045391;28;20732;-74
2022/03/20 00:04:53;;;;;;;9.80;8.90;;;7.60;94.00;;;;;;5041287;28;20199;-75
2022/03/20 00:07:20;;;;;;;12.65;11.35;;;7.60;94.10;;;;;;5035708;28;20227;-77
2022/03/20 00:09:51;;;;;;;14.45;11.80;;;7.60;94.00;;;;;;5045254;28;20203;-75
2022/03/20 00:12:18;;;;;;;12.60;11.13;;;7.70;94.10;;;;;;5046136;28;20234;-77
2022/03/20 00:14:47;;;;;;;12.57;11.35;;;7.70;94.40;;;;;;5036530;28;20204;-76
2022/03/20 00:17:14;;;;;;;15.18;11.85;;;7.80;93.90;;;;;;5044006;28;20713;-75
2022/03/20 00:19:41;;;;;;;13.43;12.07;;;7.90;93.80;;;;;;5043434;28;20648;-75
2022/03/20 00:22:08;;;;;;;13.32;11.45;;;7.90;93.70;;;;;;5038307;28;20226;-75
2022/03/20 00:24:36;;;;;;;13.10;11.70;;;7.90;93.50;;;;;;5049248;28;20198;-74
2022/03/20 00:27:03;;;;;;;13.77;11.95;;;8.00;93.40;;;;;;5040045;28;20285;-75
2022/03/20 00:29:31;;;;;;;13.15;11.68;;;7.90;93.60;;;;;;5044385;28;20225;-77
2022/03/20 00:31:59;;;;;;;13.00;11.70;;;7.90;93.50;;;;;;5043476;28;20195;-76
2022/03/20 00:34:26;;;;;;;13.90;12.60;;;7.90;93.70;;;;;;5041032;28;20202;-74
2022/03/20 00:36:53;;;;;;;15.88;13.10;;;7.90;93.60;;;;;;5042670;28;20218;-76
2022/03/20 00:39:20;;;;;;;13.57;11.48;;;7.90;93.60;;;;;;5041551;28;20624;-74
2022/03/20 00:41:47;;;;;;;13.25;11.85;;;7.90;93.70;;;;;;5040470;28;20465;-74
2022/03/20 00:44:14;;;;;;;16.60;12.10;;;7.80;93.80;;;;;;5041772;28;20438;-77
2022/03/20 00:46:41;;;;;;;12.68;11.38;;;7.70;93.70;;;;;;5045742;28;20234;-78
2022/03/20 00:49:10;;;;;;;13.27;10.45;;;7.70;93.90;;;;;;5047931;28;20223;-75
2022/03/20 00:51:38;;;;;;;13.55;12.13;;;7.60;94.00;;;;;;5043520;28;20203;-75
2022/03/20 00:54:05;;;;;;;16.65;13.27;;;7.60;93.90;;;;;;5038821;28;20231;-77
2022/03/20 00:56:32;;;;;;;16.17;13.00;;;7.70;93.70;;;;;;5046635;28;20235;-74
2022/03/20 00:58:59;;;;;;;11.98;10.63;;;7.80;93.70;;;;;;5040124;28;20223;-76
2022/03/20 01:01:26;;;;;;;11.20;10.13;;;7.70;94.10;;;;;;5036667;28;20630;-79
2022/03/20 01:03:53;;;;;;;11.35;10.15;;;7.50;94.40;;;;;;5044757;28;20219;-77
2022/03/20 01:06:22;;;;;;;12.27;10.95;;;7.30;94.90;;;;;;5037876;28;20519;-82
2022/03/20 01:08:50;;;;;;;13.13;11.82;;;7.20;94.90;;;;;;5039836;28;20269;-76
2022/03/20 01:11:17;;;;;;;13.25;11.88;;;7.20;94.80;;;;;;5038821;28;20278;-80
2022/03/20 01:13:45;;;;;;;14.75;13.13;;;7.20;94.80;;;;;;5032295;28;20227;-76
2022/03/20 01:16:12;;;;;;;14.55;11.93;;;7.30;94.60;;;;;;5040131;28;20373;-79
2022/03/20 01:18:40;;;;;;;12.90;11.60;;;7.40;94.60;;;;;;5039975;28;20299;-75
2022/03/20 01:21:07;;;;;;;15.25;13.43;;;7.30;94.90;;;;;;5036553;28;20673;-78
2022/03/20 01:23:35;;;;;;;13.38;11.98;;;7.10;95.00;;;;;;5048989;28;20228;-76
2022/03/20 01:26:02;;;;;;;13.48;12.10;;;7.20;94.90;;;;;;5040902;28;20523;-75
2022/03/20 01:28:29;;;;;;;15.10;12.60;;;7.10;95.00;;;;;;5035515;28;20222;-75
2022/03/20 01:30:57;;;;;;;14.93;13.07;;;7.00;95.20;;;;;;5043172;28;20455;-81
2022/03/20 01:33:24;;;;;;;16.42;13.80;;;7.00;95.00;;;;;;5043042;28;20241;-76
2022/03/20 01:35:52;;;;;;;13.40;12.00;;;7.10;95.10;;;;;;5042528;28;20223;-77
2022/03/20 01:38:20;;;;;;;14.82;12.77;;;7.10;95.10;;;;;;5039246;28;20222;-76
2022/03/20 01:40:48;;;;;;;11.65;10.45;;;7.00;95.10;;;;;;5038360;28;20286;-78
2022/03/20 01:43:16;;;;;;;11.80;10.60;;;7.00;95.30;;;;;;5054139;28;20222;-75
2022/03/20 01:45:43;;;;;;;11.48;10.27;;;6.80;95.70;;;;;;5037462;28;20220;-75
2022/03/20 01:48:11;;;;;;;10.73;9.63;;;6.70;95.90;;;;;;5038631;28;20806;-73
2022/03/20 01:50:39;;;;;;;10.35;9.35;;;6.60;95.90;;;;;;5045720;28;20198;-80
2022/03/20 01:53:06;;;;;;;11.95;10.43;;;6.60;96.00;;;;;;5035777;28;20239;-76
2022/03/20 01:55:34;;;;;;;10.43;9.32;;;6.60;96.10;;;;;;5039685;28;20285;-76
2022/03/20 01:58:02;;;;;;;10.70;9.60;;;6.60;96.20;;;;;;5040191;28;20219;-75
2022/03/20 02:00:31;;;;;;;9.80;8.82;;;6.50;96.40;;;;;;5039596;28;20243;-75
2022/03/20 02:02:58;;;;;;;8.70;7.88;;;6.40;96.70;;;;;;5041095;28;20873;-77
2022/03/20 02:05:26;;;;;;;10.30;9.27;;;6.20;97.00;;;;;;5045460;28;20242;-77
2022/03/20 02:07:54;;;;;;;13.18;11.88;;;6.20;97.00;;;;;;5035956;28;20329;-77
2022/03/20 02:10:21;;;;;;;10.13;9.13;;;6.00;97.20;;;;;;5040377;28;20452;-75
2022/03/20 02:12:48;;;;;;;9.82;8.75;;;5.90;97.50;;;;;;5044104;28;20457;-79
2022/03/20 02:15:16;;;;;;;10.05;9.05;;;5.90;97.50;;;;;;5036794;28;20199;-75
2022/03/20 02:17:44;;;;;;;10.80;9.63;;;5.80;97.50;;;;;;5044101;28;20773;-76
2022/03/20 02:20:12;;;;;;;10.38;9.30;;;5.80;97.60;;;;;;5039447;28;20555;-79
2022/03/20 02:22:42;;;;;;;11.05;8.77;;;5.80;97.70;;;;;;5036783;28;20219;-77
2022/03/20 02:25:11;;;;;;;11.18;10.07;;;5.80;97.80;;;;;;5036824;28;20206;-75
2022/03/20 02:27:40;;;;;;;11.45;10.25;;;5.80;98.20;;;;;;5033478;28;20231;-77
2022/03/20 02:30:14;;;;;;;11.73;9.68;;;5.80;97.90;;;;;;5039283;28;20294;-77
2022/03/20 02:32:42;;;;;;;11.13;10.10;;;5.70;97.80;;;;;;5044194;28;20253;-76
2022/03/20 02:35:15;;;;;;;12.25;10.82;;;5.70;97.90;;;;;;5041515;28;20208;-78
2022/03/20 02:37:46;;;;;;;10.20;9.18;;;5.70;97.90;;;;;;5058097;28;20250;-77
2022/03/20 02:40:14;;;;;;;9.75;8.85;;;5.70;98.10;;;;;;5042242;28;20739;-75
2022/03/20 02:42:44;;;;;;;10.23;9.23;;;5.70;98.30;;;;;;5043390;28;20737;-77
2022/03/20 02:45:13;;;;;;;12.82;11.20;;;5.70;98.10;;;;;;5042170;28;20202;-74
2022/03/20 02:47:41;;;;;;;11.45;10.30;;;5.60;98.30;;;;;;5044758;28;20226;-77
2022/03/20 02:50:10;;;;;;;10.65;9.57;;;5.60;98.10;;;;;;5045247;28;20195;-76
2022/03/20 02:52:47;;;;;;;10.57;9.52;;;5.60;98.20;;;;;;5045136;28;21786;-75
2022/03/20 02:55:16;;;;;;;9.48;8.55;;;5.60;98.20;;;;;;5042023;28;20291;-76
2022/03/20 02:57:44;;;;;;;11.77;9.57;;;5.60;98.30;;;;;;5043330;28;20693;-74
2022/03/20 03:00:12;;;;;;;10.10;9.10;;;5.60;98.40;;;;;;5043477;28;20627;-73
2022/03/20 03:02:43;;;;;;;10.98;9.88;;;5.60;98.40;;;;;;5043394;28;20206;-76
2022/03/20 03:05:11;;;;;;;10.25;9.25;;;5.60;98.50;;;;;;5039819;28;20258;-73
2022/03/20 03:13:08;;;;;;;10.60;9.52;;;5.50;98.70;;;;;;5046451;28;20229;-75
2022/03/20 03:15:35;;;;;;;9.85;8.95;;;5.50;98.80;;;;;;5046282;28;20618;-77
2022/03/20 03:18:03;;;;;;;10.52;9.52;;;5.40;98.90;;;;;;5045845;28;20623;-77
2022/03/20 03:20:30;;;;;;;9.52;8.52;;;5.40;98.90;;;;;;5047319;28;20227;-79
2022/03/20 03:22:58;;;;;;;10.80;9.82;;;5.40;99.00;;;;;;5045592;28;20237;-75
2022/03/20 03:25:26;;;;;;;9.82;8.82;;;5.40;99.20;;;;;;5041148;28;20196;-74
2022/03/20 03:27:54;;;;;;;11.02;10.02;;;5.40;99.20;;;;;;5045216;28;20230;-74
2022/03/20 03:30:22;;;;;;;11.48;9.75;;;5.30;99.30;;;;;;5054810;28;20206;-74
2022/03/20 03:32:49;;;;;;;10.38;9.38;;;5.30;99.20;;;;;;5047341;28;20308;-74
2022/03/20 03:38:02;;;;;;;11.82;10.60;;;5.20;99.40;;;;;;5041259;28;20294;-76
2022/03/20 03:40:30;;;;;;;11.82;9.90;;;5.20;99.30;;;;;;5046505;28;20194;-75
2022/03/20 03:43:00;;;;;;;11.48;10.25;;;5.20;99.30;;;;;;5044435;28;20288;-74
2022/03/20 03:45:27;;;;;;;10.23;9.20;;;5.20;99.30;;;;;;5043040;28;20207;-74
2022/03/20 03:47:54;;;;;;;10.48;9.48;;;5.20;99.30;;;;;;5038097;28;20705;-75
2022/03/20 03:50:21;;;;;;;10.65;9.65;;;5.10;99.30;;;;;;5045345;28;20261;-73
2022/03/20 03:52:49;;;;;;;12.32;10.93;;;5.10;99.50;;;;;;5040736;28;20203;-73
2022/03/20 03:55:16;;;;;;;10.43;9.43;;;5.00;99.60;;;;;;5039532;28;20203;-75
2022/03/20 03:57:46;;;;;;;10.82;9.70;;;5.00;99.90;;;;;;5036804;28;20219;-74
2022/03/20 04:00:13;;;;;;;11.00;9.90;;;5.00;99.80;;;;;;5034760;28;20200;-73
2022/03/20 04:02:40;;;;;;;10.38;9.25;;;5.00;99.70;;;;;;5042639;28;20203;-73
2022/03/20 04:05:08;;;;;;;10.93;9.73;;;5.00;99.90;;;;;;5042439;28;20206;-74
2022/03/20 04:07:35;;;;;;;11.10;10.00;;;5.00;99.90;;;;;;5044451;28;20719;-75
2022/03/20 04:10:03;;;;;;;10.02;9.02;;;4.90;99.90;;;;;;5041784;28;20227;-73
2022/03/20 04:12:31;;;;;;;11.07;9.95;;;4.80;99.90;;;;;;5036420;28;20196;-73
2022/03/20 04:15:02;;;;;;;10.82;9.73;;;4.80;99.90;;;;;;5037993;28;20799;-73
2022/03/20 04:17:30;;;;;;;13.32;10.82;;;4.70;99.90;;;;;;5039457;28;20272;-76
2022/03/20 04:19:58;;;;;;;10.77;9.70;;;4.60;99.90;;;;;;5041825;28;20302;-77
2022/03/20 04:22:25;;;;;;;10.48;9.38;;;4.60;99.90;;;;;;5045972;28;20203;-73
2022/03/20 04:24:52;;;;;;;10.63;9.63;;;4.50;99.90;;;;;;5039712;28;20207;-74
2022/03/20 04:27:20;;;;;;;11.52;10.40;;;4.50;99.90;;;;;;5044247;28;20215;-73
2022/03/20 04:29:48;;;;;;;10.77;9.68;;;4.50;99.90;;;;;;5039266;28;20705;-77
2022/03/20 04:32:16;;;;;;;11.02;9.93;;;4.50;99.90;;;;;;5044446;28;20195;-75
2022/03/20 04:34:43;;;;;;;11.02;10.00;;;4.50;99.90;;;;;;5039393;28;20254;-73
2022/03/20 04:37:12;;;;;;;10.85;9.73;;;4.50;99.90;;;;;;5042105;28;20274;-75
2022/03/20 04:39:39;;;;;;;10.35;9.35;;;4.50;99.90;;;;;;5044258;28;20242;-73
2022/03/20 04:42:09;;;;;;;9.85;8.85;;;4.50;99.90;;;;;;5038674;28;20257;-73
2022/03/20 04:44:39;;;;;;;10.65;9.55;;;4.50;99.90;;;;;;5047575;28;20296;-76
2022/03/20 04:58:28;;;;;;;11.43;9.93;;;4.40;99.90;;;;;;5053763;23;20231;-76
2022/03/20 04:58:31;;;;;;;11.18;10.10;;;4.40;99.90;;;;;;5018883;28;20249;-76
2022/03/20 05:01:00;;;;;;;10.07;9.05;;;4.40;99.90;;;;;;5027152;28;20200;-76
2022/03/20 05:03:27;;;;;;;10.88;9.85;;;4.40;99.90;;;;;;5030336;28;20192;-77
2022/03/20 05:05:56;;;;;;;11.05;9.95;;;4.40;99.90;;;;;;5021749;28;20235;-78
2022/03/20 05:08:23;;;;;;;11.25;10.15;;;4.30;99.90;;;;;;5027098;28;20219;-76
2022/03/20 05:13:35;;;;;;;11.38;10.13;;;4.20;99.90;;;;;;5026867;28;20218;-76
2022/03/20 05:16:02;;;;;;;10.95;9.13;;;4.20;99.90;;;;;;5026379;28;20276;-77
2022/03/20 05:18:29;;;;;;;11.10;10.00;;;4.20;99.90;;;;;;5035371;28;20219;-78
2022/03/20 05:20:57;;;;;;;12.25;10.20;;;4.20;99.90;;;;;;5023535;28;20203;-77
2022/03/20 05:23:25;;;;;;;11.00;9.55;;;4.10;99.90;;;;;;5017508;28;20267;-77
2022/03/20 05:25:51;;;;;;;10.68;9.57;;;4.10;99.90;;;;;;5031043;28;20574;-77
2022/03/20 05:28:21;;;;;;;10.57;9.50;;;4.10;99.90;;;;;;5024356;28;20226;-77
2022/03/20 05:30:48;;;;;;;11.20;9.85;;;4.10;99.90;;;;;;5011249;28;20210;-77
2022/03/20 05:33:16;;;;;;;11.32;9.48;;;4.10;99.90;;;;;;5017681;28;20741;-76
2022/03/20 05:35:45;;;;;;;12.05;10.70;;;4.10;99.90;;;;;;5014730;28;20242;-77
2022/03/20 05:38:14;;;;;;;10.65;9.52;;;4.20;99.90;;;;;;5023644;28;20666;-77
2022/03/20 05:40:42;;;;;;;11.23;9.90;;;4.20;99.90;;;;;;5018125;28;20235;-77
2022/03/20 05:43:10;;;;;;;9.73;8.73;;;4.10;99.90;;;;;;5020977;28;20206;-76
2022/03/20 05:45:37;;;;;;;10.38;9.38;;;4.10;99.90;;;;;;5021632;28;20242;-78
2022/03/20 05:48:05;;;;;;;9.88;8.95;;;4.00;99.90;;;;;;5018436;28;20277;-76
2022/03/20 05:50:32;;;;;;;12.32;9.52;;;4.00;99.90;;;;;;5021205;28;20224;-76
2022/03/20 05:52:59;;;;;;;9.60;8.70;;;4.10;99.90;;;;;;5017609;28;20201;-77
2022/03/20 05:58:12;;;;;;;11.60;10.43;;;4.10;99.90;;;;;;5020166;28;20220;-76
2022/03/20 06:00:43;;;;;;;10.15;9.15;;;4.20;99.90;;;;;;5008655;28;20216;-76
2022/03/20 06:03:10;;;;;;;11.07;9.98;;;4.20;99.90;;;;;;5011957;28;20203;-78
2022/03/20 06:05:38;;;;;;;10.13;9.13;;;4.30;99.90;;;;;;5013099;28;20216;-77
2022/03/20 06:08:06;;;;;;;11.80;9.98;;;4.40;99.90;;;;;;5027248;28;20303;-75
2022/03/20 06:10:35;;;;;;;12.35;9.80;;;4.40;99.90;;;;;;5029046;28;20706;-75
2022/03/20 06:13:05;;;;;;;11.25;10.05;;;4.40;99.90;;;;;;5030870;28;20208;-76
2022/03/20 06:15:33;;;;;;;10.95;9.85;;;4.60;99.90;;;;;;5030872;28;20239;-75
2022/03/20 06:18:03;;;;;;;10.13;9.13;;;5.00;99.90;;;;;;5029191;28;20216;-76
2022/03/20 06:20:34;;;;;;;11.73;9.80;;;5.40;99.90;;;;;;5028904;28;20306;-76
2022/03/20 06:23:02;;;;;;;12.15;10.48;;;5.90;99.90;;;;;;5027187;28;20207;-75
2022/03/20 06:25:29;;;;;;;11.68;10.52;;;6.40;99.90;;;;;;5035894;28;20223;-76
2022/03/20 06:28:00;;;;;;;11.27;10.00;;;6.80;99.90;;;;;;5022763;28;20220;-78
2022/03/20 06:30:27;;;;;;;11.30;10.18;;;7.20;99.90;;;;;;5028872;28;20228;-77
2022/03/20 06:32:56;;;;;;;11.45;10.35;;;7.50;99.90;;;;;;5021179;28;20224;-76
2022/03/20 06:35:24;;;;;;;11.73;10.52;;;7.80;99.90;;;;;;5025458;28;20716;-77
2022/03/20 06:37:53;;;;;;;12.80;10.77;;;8.10;99.70;;;;;;5030390;28;20215;-77
2022/03/20 06:40:20;;;;;;;11.82;10.60;;;8.30;99.70;;;;;;5025539;28;20742;-76
2022/03/20 06:42:48;;;;;;;12.32;11.05;;;8.50;99.30;;;;;;5018097;28;20203;-77
2022/03/20 06:45:18;;;;;;;13.25;10.90;;;8.70;99.20;;;;;;5027764;28;20262;-78
2022/03/20 06:47:45;;;;;;;13.32;11.50;;;8.90;99.00;;;;;;5025322;28;20617;-78
2022/03/20 06:50:13;;;;;;;13.43;12.00;;;9.00;98.50;;;;;;5020882;28;20554;-76
2022/03/20 06:52:41;;;;;;;11.95;10.75;;;9.10;98.10;;;;;;5026226;28;20196;-77
2022/03/20 06:55:12;;;;;;;12.30;11.05;;;9.20;98.70;;;;;;5021735;28;20878;-76
2022/03/20 06:57:41;;;;;;;13.15;11.75;;;9.40;98.50;;;;;;5026582;28;20219;-77
2022/03/20 07:00:10;;;;;;;13.73;12.25;;;9.50;98.70;;;;;;5027035;28;20306;-75
2022/03/20 07:02:38;;;;;;;12.77;11.48;;;9.70;98.80;;;;;;5028891;28;20196;-76
2022/03/20 07:05:06;;;;;;;12.77;11.40;;;9.80;98.60;;;;;;5018499;28;20228;-77
2022/03/20 07:07:34;;;;;;;12.98;11.10;;;10.00;98.60;;;;;;5021516;28;20269;-77
2022/03/20 07:10:01;;;;;;;12.65;11.40;;;10.20;98.10;;;;;;5025073;28;20228;-77
2022/03/20 07:12:28;;;;;;;12.73;11.43;;;10.20;98.20;;;;;;5022127;28;20204;-78
2022/03/20 07:14:57;;;;;;;12.45;11.15;;;10.30;98.10;;;;;;5018245;28;20219;-76
2022/03/20 07:17:24;;;;;;;12.30;11.00;;;10.30;97.90;;;;;;5020989;28;20335;-77
2022/03/20 07:19:53;;;;;;;13.05;11.75;;;10.40;97.80;;;;;;5024726;28;20227;-77
2022/03/20 07:22:23;;;;;;;13.88;12.30;;;10.40;97.80;;;;;;5021451;28;20199;-76
2022/03/20 07:24:50;;;;;;;13.68;11.63;;;10.30;97.50;;;;;;5018963;28;20298;-75
2022/03/20 07:30:06;;;;;;;11.88;10.77;;;10.50;97.60;;;;;;5020966;28;20222;-77
2022/03/20 07:32:33;;;;;;;12.02;10.68;;;10.70;97.70;;;;;;5025845;28;20200;-76
2022/03/20 07:35:01;;;;;;;12.63;11.32;;;10.80;97.40;;;;;;5026137;28;20213;-74
2022/03/20 07:37:29;;;;;;;12.57;10.68;;;11.10;96.70;;;;;;5025426;28;20227;-77
2022/03/20 07:39:56;;;;;;;11.95;10.70;;;11.20;96.50;;;;;;5025608;28;20216;-77
2022/03/20 07:42:26;;;;;;;13.60;10.88;;;11.30;96.50;;;;;;5017031;28;20418;-77
2022/03/20 07:44:53;;;;;;;12.10;10.90;;;11.50;96.30;;;;;;5013449;28;20220;-78
2022/03/20 07:47:21;;;;;;;12.30;11.05;;;11.80;96.00;;;;;;5026953;28;20234;-77
2022/03/20 07:49:50;;;;;;;12.02;10.85;;;12.10;95.50;;;;;;5025371;28;20220;-75
2022/03/20 07:52:19;;;;;;;13.02;11.20;;;12.20;95.50;;;;;;5019473;28;20200;-78
2022/03/20 07:54:47;;;;;;;11.82;10.70;;;12.20;94.80;;;;;;5011386;28;20262;-75
2022/03/20 07:57:14;;;;;;;12.05;10.85;;;12.10;94.30;;;;;;5013268;28;20231;-77
2022/03/20 07:59:44;;;;;;;12.82;11.00;;;12.20;94.80;;;;;;5019015;28;20226;-76
2022/03/20 08:02:11;;;;;;;13.70;11.82;;;12.20;95.00;;;;;;5025280;28;20209;-77
2022/03/20 08:04:40;;;;;;;12.82;11.52;;;12.10;94.50;;;;;;5027967;28;20222;-76
2022/03/20 08:07:07;;;;;;;11.43;10.10;;;12.20;95.50;;;;;;5020991;28;20259;-76
2022/03/20 08:09:36;;;;;;;12.68;11.38;;;12.40;94.10;;;;;;5012309;28;20311;-75
2022/03/20 08:12:03;;;;;;;11.43;10.32;;;12.60;94.90;;;;;;5024091;28;20211;-77
2022/03/20 08:14:30;;;;;;;11.95;10.57;;;12.70;95.50;;;;;;5015166;28;20274;-76
2022/03/20 08:16:57;;;;;;;12.15;10.50;;;13.30;94.90;;;;;;5014928;28;20231;-77
2022/03/20 08:19:24;;;;;;;12.70;11.50;;;13.80;94.00;;;;;;5015337;28;20231;-75
2022/03/20 08:21:52;;;;;;;12.23;11.02;;;14.30;93.60;;;;;;5021002;28;20200;-77
2022/03/20 08:24:19;;;;;;;14.60;11.75;;;14.50;92.70;;;;;;5024278;28;20242;-76
2022/03/20 08:26:47;;;;;;;12.65;11.35;;;14.40;92.10;;;;;;5016498;28;20192;-77
2022/03/20 08:29:15;;;;;;;13.32;11.98;;;14.20;92.40;;;;;;5011354;28;20224;-77
2022/03/20 08:31:45;;;;;;;13.85;12.45;;;14.00;92.40;;;;;;5016925;28;20283;-77
2022/03/20 08:34:13;;;;;;;13.07;11.68;;;13.90;91.60;;;;;;5013708;28;20806;-75
2022/03/20 08:36:40;;;;;;;13.73;12.32;;;13.40;91.60;;;;;;5009970;28;20280;-77
2022/03/20 08:39:07;;;;;;;13.60;12.20;;;12.90;91.10;;;;;;5007971;28;20228;-76
2022/03/20 08:41:34;;;;;;;13.38;12.05;;;12.80;91.80;;;;;;5010928;28;20785;-78
2022/03/20 08:44:05;;;;;;;12.82;11.52;;;12.90;92.70;;;;;;5011275;28;20212;-76
2022/03/20 08:46:32;;;;;;;13.60;12.20;;;13.40;92.80;;;;;;5011824;28;20279;-75
2022/03/20 08:49:03;;;;;;;13.05;11.75;;;13.50;91.90;;;;;;5010432;28;20212;-76
2022/03/20 08:51:30;;;;;;;12.90;11.57;;;14.00;92.90;;;;;;5012515;28;20196;-77
2022/03/20 08:53:58;;;;;;;12.05;10.70;;;14.30;92.10;;;;;;5016332;28;20203;-76
2022/03/20 08:56:25;;;;;;;12.48;11.27;;;14.30;92.50;;;;;;5014501;28;20215;-77
2022/03/20 08:58:52;;;;;;;13.15;11.73;;;14.60;92.10;;;;;;5020209;28;20227;-76
2022/03/20 09:01:21;;;;;;;12.48;11.18;;;14.60;91.50;;;;;;5015251;28;20200;-75
2022/03/20 09:03:50;;;;;;;12.38;11.20;;;14.60;91.30;;;;;;5016972;28;20188;-76
2022/03/20 09:06:17;;;;;;;14.32;12.65;;;14.50;90.60;;;;;;5009034;28;20216;-77
2022/03/20 09:08:44;;;;;;;14.68;13.20;;;14.10;90.70;;;;;;5012856;28;20219;-75
2022/03/20 09:11:11;;;;;;;12.98;11.68;;;14.10;90.80;;;;;;5012834;28;20715;-76
2022/03/20 09:13:38;;;;;;;14.20;12.75;;;13.90;90.50;;;;;;5019096;28;20196;-77
2022/03/20 09:19:03;;;;;;;14.38;12.88;;;14.30;90.70;;;;;;5018679;28;20222;-75
2022/03/20 09:21:32;;;;;;;14.07;12.68;;;14.70;89.50;;;;;;5010518;28;20224;-76
2022/03/20 09:24:00;;;;;;;15.63;13.93;;;14.50;89.80;;;;;;5024956;28;20223;-75
2022/03/20 09:26:27;;;;;;;13.30;11.93;;;14.40;90.00;;;;;;5016957;28;20216;-76
2022/03/20 09:28:55;;;;;;;14.02;12.40;;;14.70;89.70;;;;;;5022949;28;20302;-77
2022/03/20 09:31:22;;;;;;;14.20;12.68;;;14.90;88.60;;;;;;5024048;28;20254;-76
2022/03/20 09:33:51;;;;;;;15.20;13.60;;;14.90;89.20;;;;;;5020137;28;20199;-75
2022/03/20 09:36:18;;;;;;;14.90;13.50;;;15.20;88.80;;;;;;5014644;28;20236;-77
2022/03/20 09:38:45;;;;;;;14.77;13.25;;;14.90;88.50;;;;;;5013464;28;20219;-75
2022/03/20 09:41:13;;;;;;;13.85;12.45;;;14.60;88.50;;;;;;5014475;28;20220;-76
2022/03/20 09:43:42;;;;;;;14.70;13.15;;;14.50;88.90;;;;;;5022882;28;20200;-75
2022/03/20 09:46:09;;;;;;;13.45;12.15;;;14.70;88.10;;;;;;5024710;28;20218;-76
2022/03/20 09:48:36;;;;;;;16.38;13.73;;;15.00;88.90;;;;;;5022372;28;20228;-73
2022/03/20 09:51:09;;;;;;;14.48;12.98;;;15.00;86.70;;;;;;5022862;28;20600;-75
2022/03/20 09:53:36;;;;;;;14.43;12.95;;;15.30;87.00;;;;;;5021061;28;20202;-76
2022/03/20 09:56:05;;;;;;;16.48;14.45;;;15.70;86.20;;;;;;5016991;28;20220;-76
2022/03/20 09:58:32;;;;;;;14.52;13.02;;;15.60;85.20;;;;;;5019282;28;20223;-75
2022/03/20 10:01:01;;;;;;;15.05;13.30;;;15.60;85.30;;;;;;5021965;28;20223;-75
2022/03/20 10:03:28;;;;;;;15.50;13.70;;;15.50;85.00;;;;;;5018090;28;20196;-79
2022/03/20 10:06:09;;;;;;;15.35;13.75;;;15.30;85.20;;;;;;5015815;28;20223;-75
2022/03/20 10:08:36;;;;;;;14.00;12.60;;;15.00;84.50;;;;;;5014737;28;20606;-76
2022/03/20 10:11:14;;;;;;;13.60;12.20;;;14.90;86.20;;;;;;5018621;28;20694;-77
2022/03/20 10:14:02;;;;;;;15.15;13.60;;;15.10;85.90;;;;;;5017965;28;20204;-76
2022/03/20 10:16:29;;;;;;;14.45;12.90;;;15.30;85.50;;;;;;5008811;28;20220;-74
2022/03/20 10:18:56;;;;;;;16.73;12.80;;;15.60;85.20;;;;;;5016933;28;20591;-74
2022/03/20 10:21:43;;;;;;;14.80;13.30;;;15.80;84.60;;;;;;5016387;28;20832;-75
2022/03/20 10:24:17;;;;;;;15.32;13.73;;;15.90;84.10;;;;;;5008451;28;20200;-75
2022/03/20 10:26:45;;;;;;;15.55;13.35;;;15.90;84.40;;;;;;5016539;28;20299;-75
2022/03/20 10:29:16;;;;;;;15.02;13.35;;;15.90;84.00;;;;;;5013229;28;20274;-74
2022/03/20 10:31:50;;;;;;;14.85;13.27;;;16.00;83.60;;;;;;5023151;28;20216;-74
2022/03/20 10:34:18;;;;;;;13.88;12.50;;;16.10;82.00;;;;;;5017305;28;20278;-78
2022/03/20 10:36:47;;;;;;;15.02;13.43;;;16.20;81.80;;;;;;5015265;28;20219;-76
2022/03/20 10:39:16;;;;;;;15.27;13.75;;;16.20;82.00;;;;;;5017660;28;20196;-77
2022/03/20 10:41:45;;;;;;;14.48;13.02;;;15.90;81.90;;;;;;5013283;28;20226;-78
2022/03/20 10:44:15;;;;;;;13.60;12.30;;;15.90;82.30;;;;;;5018246;28;20215;-75
2022/03/20 10:46:42;;;;;;;14.18;12.77;;;16.00;81.50;;;;;;5012308;28;20306;-77
2022/03/20 10:49:11;;;;;;;15.20;13.70;;;16.30;83.20;;;;;;5008456;28;20283;-74
2022/03/20 10:51:40;;;;;;;24.52;14.77;;;16.50;82.70;;;;;;5018165;28;20224;-77
2022/03/20 10:54:11;;;;;;;15.38;13.52;;;16.20;81.00;;;;;;5014429;28;20304;-77
2022/03/20 10:56:51;;;;;;;14.10;12.70;;;15.80;81.10;;;;;;5019861;28;20708;-77
2022/03/20 10:59:18;;;;;;;14.60;13.20;;;15.90;82.30;;;;;;5014110;28;20241;-79
2022/03/20 11:01:45;;;;;;;14.25;12.75;;;15.70;81.50;;;;;;5018756;28;20216;-78
2022/03/20 11:04:13;;;;;;;14.02;12.63;;;16.00;81.90;;;;;;5017961;28;20191;-78
2022/03/20 11:06:42;;;;;;;14.30;12.80;;;16.10;80.10;;;;;;5014111;28;20710;-78
2022/03/20 11:09:11;;;;;;;14.05;12.73;;;16.00;79.00;;;;;;5014334;28;20291;-79
2022/03/20 11:11:42;;;;;;;14.18;12.82;;;16.10;79.80;;;;;;5020791;28;20216;-79
2022/03/20 11:14:10;;;;;;;13.48;12.07;;;16.10;79.20;;;;;;5017533;28;20215;-77
2022/03/20 11:16:38;;;;;;;15.73;12.10;;;16.10;79.00;;;;;;5015265;28;20226;-78
2022/03/20 11:19:10;;;;;;;11.88;10.68;;;16.20;79.00;;;;;;5022614;28;20200;-78
2022/03/20 11:21:41;;;;;;;13.38;11.98;;;16.40;77.70;;;;;;5015116;28;20266;-79
2022/03/20 11:24:09;;;;;;;14.27;12.88;;;16.30;78.10;;;;;;5013221;28;20203;-78
2022/03/20 11:26:40;;;;;;;13.23;11.93;;;16.40;79.10;;;;;;5009886;28;20212;-78
2022/03/20 11:29:09;;;;;;;13.65;12.27;;;16.20;78.60;;;;;;5017993;28;20193;-78
2022/03/20 11:31:38;;;;;;;14.73;12.98;;;16.20;77.40;;;;;;5022113;28;20223;-77
2022/03/20 11:34:07;;;;;;;13.70;12.30;;;16.10;78.70;;;;;;5024588;28;20666;-76
2022/03/20 11:36:34;;;;;;;14.38;12.98;;;15.80;77.90;;;;;;5018550;28;20266;-76
2022/03/20 11:39:13;;;;;;;13.32;12.02;;;15.80;78.60;;;;;;5022360;28;20196;-77
2022/03/20 11:41:42;;;;;;;13.18;11.88;;;15.80;79.40;;;;;;5021658;28;20219;-78
2022/03/20 11:44:20;;;;;;;14.10;12.70;;;16.20;80.40;;;;;;5039427;23;20625;-76
2022/03/20 11:46:47;;;;;;;13.75;12.35;;;16.80;79.60;;;;;;5042685;28;20218;-76
2022/03/20 11:49:24;;;;;;;14.02;12.23;;;16.80;77.40;;;;;;5042814;28;20199;-75
2022/03/20 11:52:14;;;;;;;13.98;12.55;;;16.70;76.00;;;;;;5040759;28;20242;-75
2022/03/20 11:54:57;;;;;;;14.50;13.10;;;16.20;74.90;;;;;;5023511;28;20227;-74
2022/03/20 11:57:41;;;;;;;13.60;12.10;;;15.70;78.70;;;;;;5027851;28;20219;-75
2022/03/20 12:00:14;;;;;;;12.20;11.00;;;16.20;79.30;;;;;;5031389;28;20219;-74
2022/03/20 12:02:52;;;;;;;13.05;11.68;;;16.70;79.30;;;;;;5028993;28;20196;-76
2022/03/20 12:05:28;;;;;;;13.30;11.90;;;17.00;76.80;;;;;;5028913;28;20222;-76
2022/03/20 12:08:05;;;;;;;13.05;11.75;;;16.90;76.30;;;;;;5025903;28;20195;-74
2022/03/20 12:10:44;;;;;;;13.95;12.50;;;16.80;75.30;;;;;;5032897;28;20282;-75
2022/03/20 12:13:24;;;;;;;13.23;11.50;;;16.60;75.30;;;;;;5029222;28;20207;-75
2022/03/20 12:15:52;;;;;;;13.45;11.60;;;16.20;75.90;;;;;;5028121;28;20397;-77
2022/03/20 12:18:19;;;;;;;12.13;11.02;;;16.20;77.30;;;;;;5032461;28;20199;-77
2022/03/20 12:21:03;;;;;;;12.30;11.10;;;16.20;77.20;;;;;;5031637;28;20273;-75
2022/03/20 12:23:44;;;;;;;13.43;12.13;;;16.30;75.60;;;;;;5026450;28;20681;-76
2022/03/20 12:26:46;;;;;;;12.57;11.25;;;16.60;76.30;;;;;;5026326;28;20462;-73
2022/03/20 12:29:35;;;;;;;12.38;11.18;;;17.00;75.60;;;;;;5028167;28;20332;-75
2022/03/20 12:32:04;;;;;;;13.43;11.10;;;17.30;76.20;;;;;;5022781;28;20286;-77
2022/03/20 12:34:31;;;;;;;12.38;11.18;;;17.40;76.60;;;;;;5031996;28;20227;-75
2022/03/20 12:37:37;;;;;;;12.25;11.05;;;17.10;74.90;;;;;;5020878;28;20251;-77
2022/03/20 12:40:18;;;;;;;13.15;11.85;;;16.60;75.80;;;;;;5020826;28;20439;-78
2022/03/20 12:42:57;;;;;;;14.45;11.90;;;16.40;75.50;;;;;;5020685;28;20676;-77
2022/03/20 12:45:25;;;;;;;12.70;11.40;;;16.50;77.70;;;;;;5029919;28;20273;-77
2022/03/20 12:47:59;;;;;;;12.25;11.05;;;16.50;77.70;;;;;;5029106;28;20196;-77
2022/03/20 12:50:27;;;;;;;13.25;11.93;;;16.20;74.60;;;;;;5019716;28;20215;-75
2022/03/20 12:53:02;;;;;;;15.02;13.10;;;15.90;77.80;;;;;;5024269;28;20204;-74
2022/03/20 12:55:30;;;;;;;13.02;11.73;;;16.00;77.10;;;;;;5024809;28;21932;-78
2022/03/20 12:57:58;;;;;;;12.73;11.52;;;16.20;76.10;;;;;;5028389;28;20310;-75
2022/03/20 13:00:27;;;;;;;13.70;12.20;;;16.50;75.90;;;;;;5030892;28;20227;-76
2022/03/20 13:02:59;;;;;;;13.25;11.23;;;16.50;75.40;;;;;;5028927;28;20199;-75
2022/03/20 13:05:27;;;;;;;12.13;11.00;;;16.70;76.30;;;;;;5030121;28;20219;-75
2022/03/20 13:07:55;;;;;;;12.40;11.07;;;16.80;76.10;;;;;;5028585;28;20211;-75
2022/03/20 13:10:23;;;;;;;12.23;11.00;;;16.90;75.60;;;;;;5029509;28;20216;-76
2022/03/20 13:12:52;;;;;;;13.77;12.48;;;16.80;75.00;;;;;;5032048;28;20192;-75
2022/03/20 13:15:26;;;;;;;13.80;11.45;;;16.80;75.00;;;;;;5027510;28;20234;-76